createdAt,value
2023-01-20T00:01:48.583Z,69.18
2023-01-20T00:04:21.441Z,68.93
2023-01-20T00:06:50.034Z,68.72
2023-01-20T00:09:19.501Z,68.49
2023-01-20T00:11:48.418Z,68.21
2023-01-20T00:14:17.600Z,68.51
2023-01-20T00:16:46.743Z,68.56
2023-01-20T00:19:16.821Z,68.31
2023-01-20T00:21:46.021Z,68.22
2023-01-20T00:24:15.990Z,67.99
2023-01-20T00:26:45.149Z,67.85
2023-01-20T00:29:14.495Z,67.72
2023-01-20T00:31:43.328Z,67.56
2023-01-20T00:34:12.247Z,67.34
2023-01-20T00:36:41.554Z,67.62
2023-01-20T00:39:10.481Z,67.88
2023-01-20T00:41:40.020Z,68.02
2023-01-20T00:44:09.062Z,67.83
2023-01-20T00:46:37.962Z,67.99
2023-01-20T00:49:06.773Z,68.28
2023-01-20T00:51:35.640Z,68.83
2023-01-20T00:54:04.858Z,69.25
2023-01-20T00:56:34.539Z,69.62
2023-01-20T00:59:03.828Z,70.03
2023-01-20T01:01:33.289Z,70.48
2023-01-20T01:04:02.932Z,71.03
2023-01-20T01:06:32.407Z,71.32
2023-01-20T01:09:02.177Z,71.43
2023-01-20T01:11:32.404Z,71.45
2023-01-20T01:14:01.484Z,71.58
2023-01-20T01:16:30.194Z,71.88
2023-01-20T01:18:59.217Z,72.05
2023-01-20T01:21:28.338Z,71.90
2023-01-20T01:23:57.653Z,71.90
2023-01-20T01:26:26.804Z,71.83
2023-01-20T01:28:55.369Z,71.77
2023-01-20T01:31:24.859Z,72.01
2023-01-20T01:33:53.846Z,71.69
2023-01-20T01:36:22.611Z,71.72
2023-01-20T01:38:58.898Z,71.97
2023-01-20T01:41:28.431Z,72.05
2023-01-20T01:44:16.405Z,72.21
2023-01-20T01:46:45.271Z,72.11
2023-01-20T01:49:23.343Z,71.96
2023-01-20T01:52:00.252Z,71.99
2023-01-20T01:54:38.864Z,71.99
2023-01-20T01:57:08.308Z,72.09
2023-01-20T01:59:39.572Z,71.88
2023-01-20T02:02:08.488Z,71.79
2023-01-20T02:04:39.353Z,71.77
2023-01-20T02:07:16.821Z,72.17
2023-01-20T02:09:45.550Z,72.47
2023-01-20T02:12:18.880Z,72.60
2023-01-20T02:14:54.541Z,72.63
2023-01-20T02:17:47.569Z,72.43
2023-01-20T02:20:21.918Z,72.78
2023-01-20T02:22:53.753Z,72.75
2023-01-20T02:25:44.514Z,72.44
2023-01-20T02:28:35.005Z,71.87
2023-01-20T02:31:22.298Z,71.69
2023-01-20T02:34:41.180Z,71.84
2023-01-20T02:37:09.874Z,72.11
2023-01-20T02:39:49.319Z,72.56
2023-01-20T02:42:21.235Z,72.55
2023-01-20T02:45:08.012Z,72.79
2023-01-20T02:47:51.627Z,72.91
2023-01-20T02:50:31.700Z,72.95
2023-01-20T02:53:04.510Z,73.19
2023-01-20T02:55:46.314Z,73.12
2023-01-20T02:58:46.074Z,73.24
2023-01-20T03:01:21.206Z,73.35
2023-01-20T03:03:54.716Z,73.79
2023-01-20T03:06:26.436Z,73.67
2023-01-20T03:08:58.545Z,73.77
2023-01-20T03:11:29.607Z,73.77
2023-01-20T03:14:05.950Z,73.84
2023-01-20T03:16:34.916Z,73.94
2023-01-20T03:19:04.743Z,73.73
2023-01-20T03:21:34.713Z,73.73
2023-01-20T03:24:05.296Z,73.55
2023-01-20T03:26:34.859Z,73.90
2023-01-20T03:29:07.144Z,74.19
2023-01-20T03:31:41.982Z,74.13
2023-01-20T03:34:16.351Z,74.45
2023-01-20T03:36:46.600Z,74.00
2023-01-20T03:39:16.416Z,73.47
2023-01-20T03:42:07.927Z,73.43
2023-01-20T03:44:58.528Z,73.42
2023-01-20T03:47:45.234Z,73.29
2023-01-20T03:50:46.482Z,72.78
2023-01-20T03:53:35.321Z,72.27
2023-01-20T03:56:13.681Z,72.44
2023-01-20T03:58:47.603Z,72.40
2023-01-20T04:01:19.768Z,71.99
2023-01-20T04:03:53.955Z,72.07
2023-01-20T04:06:26.671Z,72.10
2023-01-20T04:09:02.033Z,72.23
2023-01-20T04:11:30.769Z,72.30
2023-01-20T04:14:00.161Z,72.06
2023-01-20T04:16:29.197Z,72.11
2023-01-20T04:18:58.267Z,72.18
2023-01-20T04:21:44.877Z,72.66
2023-01-20T04:24:29.068Z,72.59
2023-01-20T04:26:57.904Z,72.38
2023-01-20T04:29:26.856Z,72.49
2023-01-20T04:32:01.169Z,72.56
2023-01-20T04:34:31.654Z,72.63
2023-01-20T04:37:00.691Z,72.81
2023-01-20T04:39:29.635Z,72.55
2023-01-20T04:41:58.842Z,72.20
2023-01-20T04:44:28.075Z,71.98
2023-01-20T04:46:59.517Z,72.01
2023-01-20T04:49:28.683Z,72.22
2023-01-20T04:51:57.721Z,72.00
2023-01-20T04:54:26.565Z,71.99
2023-01-20T04:56:55.664Z,71.94
2023-01-20T04:59:24.562Z,72.27
2023-01-20T05:01:53.700Z,72.34
2023-01-20T05:04:23.232Z,71.96
2023-01-20T05:06:52.102Z,71.61
2023-01-20T05:09:21.657Z,71.34
2023-01-20T05:11:50.403Z,71.47
2023-01-20T05:14:19.201Z,71.72
2023-01-20T05:16:47.894Z,71.68
2023-01-20T05:19:17.153Z,71.51
2023-01-20T05:21:46.172Z,71.53
2023-01-20T05:24:15.366Z,71.69
2023-01-20T05:26:44.421Z,72.05
2023-01-20T05:29:13.627Z,71.95
2023-01-20T05:31:43.901Z,71.61
2023-01-20T05:34:13.801Z,71.28
2023-01-20T05:36:43.637Z,71.28
2023-01-20T05:39:13.268Z,71.27
2023-01-20T05:41:42.228Z,71.50
2023-01-20T05:44:11.408Z,71.66
2023-01-20T05:46:40.510Z,72.11
2023-01-20T05:49:13.030Z,71.91
2023-01-20T05:51:42.139Z,72.31
2023-01-20T05:54:11.301Z,72.44
2023-01-20T05:56:40.243Z,72.83
2023-01-20T05:59:10.208Z,72.92
2023-01-20T06:01:39.182Z,72.73
2023-01-20T06:04:08.696Z,72.62
2023-01-20T06:06:38.578Z,72.83
2023-01-20T06:09:08.165Z,72.98
2023-01-20T06:11:37.324Z,72.51
2023-01-20T06:14:06.930Z,72.33
2023-01-20T06:16:36.967Z,72.34
2023-01-20T06:19:06.905Z,72.82
2023-01-20T06:21:36.191Z,72.73
2023-01-20T06:24:06.721Z,72.39
2023-01-20T06:26:36.061Z,72.16
2023-01-20T06:29:04.718Z,72.11
2023-01-20T06:31:33.732Z,72.37
2023-01-20T06:34:02.699Z,72.29
2023-01-20T06:36:31.750Z,72.14
2023-01-20T06:39:01.041Z,71.98
2023-01-20T06:41:30.455Z,71.82
2023-01-20T06:43:59.661Z,71.78
2023-01-20T06:46:29.394Z,71.45
2023-01-20T06:49:00.992Z,70.88
2023-01-20T06:51:31.482Z,70.41
2023-01-20T06:54:00.682Z,70.32
2023-01-20T06:56:29.528Z,70.46
2023-01-20T06:58:58.551Z,70.44
2023-01-20T07:01:30.219Z,69.92
2023-01-20T07:03:59.611Z,69.70
2023-01-20T07:06:35.132Z,69.77
2023-01-20T07:09:04.643Z,70.05
2023-01-20T07:11:35.489Z,69.93
2023-01-20T07:14:06.134Z,69.83
2023-01-20T07:16:35.541Z,70.07
2023-01-20T07:19:04.793Z,68.75
2023-01-20T07:21:33.809Z,65.10
2023-01-20T07:24:03.215Z,61.33
2023-01-20T07:26:33.297Z,58.14
2023-01-20T07:29:03.005Z,54.88
2023-01-20T07:31:32.293Z,52.43
2023-01-20T07:34:01.261Z,50.59
2023-01-20T07:36:30.643Z,48.24
2023-01-20T07:38:59.627Z,46.93
2023-01-20T07:41:28.423Z,46.88
2023-01-20T07:43:57.429Z,45.80
2023-01-20T07:46:26.607Z,44.12
2023-01-20T07:48:56.798Z,42.92
2023-01-20T07:51:26.674Z,42.02
2023-01-20T07:53:55.373Z,41.51
2023-01-20T07:56:28.113Z,42.94
2023-01-20T07:58:58.515Z,44.44
2023-01-20T08:01:30.748Z,45.68
2023-01-20T08:04:03.199Z,47.01
2023-01-20T08:06:32.018Z,48.03
2023-01-20T08:09:02.741Z,48.84
2023-01-20T08:11:35.155Z,49.08
2023-01-20T08:14:04.251Z,48.24
2023-01-20T08:16:33.834Z,47.29
2023-01-20T08:19:02.994Z,46.25
2023-01-20T08:21:33.436Z,45.48
2023-01-20T08:24:07.593Z,45.03
2023-01-20T08:26:36.932Z,44.20
2023-01-20T08:29:09.888Z,43.29
2023-01-20T08:31:39.560Z,43.87
2023-01-20T08:34:09.366Z,44.14
2023-01-20T08:36:47.123Z,43.35
2023-01-20T08:39:19.421Z,42.74
2023-01-20T08:41:49.072Z,42.71
2023-01-20T08:44:20.949Z,42.11
2023-01-20T08:46:52.998Z,41.78
2023-01-20T08:49:23.836Z,41.66
2023-01-20T08:51:53.169Z,41.20
2023-01-20T08:54:24.154Z,40.51
2023-01-20T08:56:54.057Z,40.27
2023-01-20T08:59:24.268Z,39.58
2023-01-20T09:01:53.504Z,39.07
2023-01-20T09:04:23.055Z,38.51
2023-01-20T09:06:53.203Z,37.45
2023-01-20T09:09:24.031Z,36.82
2023-01-20T09:11:53.293Z,36.20
2023-01-20T09:14:24.858Z,35.80
2023-01-20T09:16:53.961Z,35.38
2023-01-20T09:19:23.220Z,35.12
2023-01-20T09:21:52.340Z,34.76
2023-01-20T09:24:21.457Z,35.01
2023-01-20T09:26:52.367Z,35.13
2023-01-20T09:29:21.656Z,35.56
2023-01-20T09:31:54.523Z,35.43
2023-01-20T09:34:24.996Z,35.06
2023-01-20T09:36:59.293Z,34.77
2023-01-20T09:39:46.963Z,34.60
2023-01-20T09:42:51.563Z,34.29
2023-01-20T09:45:32.602Z,33.86
2023-01-20T09:48:40.372Z,33.42
2023-01-20T09:51:39.796Z,33.40
2023-01-20T09:54:23.781Z,33.31
2023-01-20T09:56:57.297Z,33.30
2023-01-20T09:59:35.238Z,33.39
2023-01-20T10:02:15.219Z,34.04
2023-01-20T10:04:51.312Z,34.20
2023-01-20T10:07:36.157Z,35.28
2023-01-20T10:10:21.824Z,35.57
2023-01-20T10:13:03.759Z,34.83
2023-01-20T10:15:38.493Z,36.39
2023-01-20T10:18:35.286Z,38.11
2023-01-20T10:21:20.961Z,39.21
2023-01-20T10:23:57.372Z,36.91
2023-01-20T10:26:49.869Z,36.14
2023-01-20T10:29:37.716Z,35.66
2023-01-20T10:32:33.819Z,35.61
2023-01-20T10:35:19.756Z,35.86
2023-01-20T10:37:48.773Z,36.02
2023-01-20T10:40:35.137Z,35.63
2023-01-20T10:43:31.000Z,35.84
2023-01-20T10:46:12.617Z,36.15
2023-01-20T10:48:51.208Z,36.42
2023-01-20T10:51:35.116Z,36.76
2023-01-20T10:54:31.156Z,37.04
2023-01-20T10:57:04.791Z,37.96
2023-01-20T10:59:45.503Z,38.32
2023-01-20T11:02:27.643Z,38.77
2023-01-20T11:05:03.817Z,39.10
2023-01-20T11:07:35.017Z,39.72
2023-01-20T11:10:24.896Z,40.05
2023-01-20T11:12:57.289Z,40.50
2023-01-20T11:15:34.035Z,40.49
2023-01-20T11:18:15.596Z,40.67
2023-01-20T11:21:05.116Z,40.78
2023-01-20T11:23:40.274Z,40.92
2023-01-20T11:26:21.649Z,40.80
2023-01-20T11:28:59.931Z,40.92
2023-01-20T11:31:41.392Z,40.67
2023-01-20T11:34:26.354Z,40.46
2023-01-20T11:37:10.690Z,40.89
2023-01-20T11:39:54.643Z,40.70
2023-01-20T11:42:26.554Z,40.42
2023-01-20T11:45:15.366Z,40.37
2023-01-20T11:48:01.053Z,40.77
2023-01-20T11:50:35.843Z,41.02
2023-01-20T11:53:19.972Z,40.97
2023-01-20T11:56:20.407Z,41.29
2023-01-20T11:58:51.127Z,41.21
2023-01-20T12:01:31.522Z,41.31
2023-01-20T12:04:22.218Z,41.31
2023-01-20T12:07:03.310Z,41.87
2023-01-20T12:09:44.475Z,41.91
2023-01-20T12:12:45.650Z,41.84
2023-01-20T12:15:20.051Z,42.13
2023-01-20T12:18:22.769Z,42.40
2023-01-20T12:21:00.504Z,42.40
2023-01-20T12:23:30.952Z,42.39
2023-01-20T12:26:04.848Z,42.40
2023-01-20T12:28:53.007Z,42.48
2023-01-20T12:31:26.728Z,43.05
2023-01-20T12:34:06.272Z,43.04
2023-01-20T12:37:12.683Z,42.79
2023-01-20T12:39:57.115Z,43.06
2023-01-20T12:42:45.031Z,43.03
2023-01-20T12:45:28.096Z,43.20
2023-01-20T12:48:24.471Z,43.33
2023-01-20T12:51:25.872Z,43.24
2023-01-20T12:54:05.578Z,43.22
2023-01-20T12:57:01.897Z,42.78
2023-01-20T13:00:09.194Z,42.82
2023-01-20T13:03:16.216Z,42.52
2023-01-20T13:05:58.115Z,42.64
2023-01-20T13:08:37.062Z,42.48
2023-01-20T13:11:31.907Z,42.57
2023-01-20T13:14:07.858Z,42.80
2023-01-20T13:17:08.964Z,43.01
2023-01-20T13:19:48.588Z,42.94
2023-01-20T13:22:23.992Z,42.82
2023-01-20T13:24:58.699Z,42.75
2023-01-20T13:27:38.236Z,42.90
2023-01-20T13:30:08.925Z,42.89
2023-01-20T13:32:45.925Z,42.99
2023-01-20T13:35:18.499Z,42.98
2023-01-20T13:37:57.638Z,43.16
2023-01-20T13:40:33.597Z,42.98
2023-01-20T13:43:04.258Z,42.35
2023-01-20T13:45:33.539Z,42.11
2023-01-20T13:48:12.578Z,41.76
2023-01-20T13:50:44.315Z,41.70
2023-01-20T13:53:23.451Z,41.64
2023-01-20T13:56:01.608Z,41.29
2023-01-20T13:58:36.837Z,41.10
2023-01-20T14:01:11.243Z,40.76
2023-01-20T14:03:41.742Z,40.38
2023-01-20T14:06:12.129Z,39.73
2023-01-20T14:08:47.127Z,38.94
2023-01-20T14:11:19.792Z,38.62
2023-01-20T14:14:08.944Z,38.52
2023-01-20T14:16:42.288Z,38.40
2023-01-20T14:19:28.830Z,37.99
2023-01-20T14:22:05.002Z,37.78
2023-01-20T14:24:49.382Z,37.82
2023-01-20T14:27:30.840Z,38.71
2023-01-20T14:30:16.298Z,39.69
2023-01-20T14:32:46.792Z,40.79
2023-01-20T14:35:29.314Z,41.17
2023-01-20T14:38:00.648Z,41.48
2023-01-20T14:40:36.296Z,41.90
2023-01-20T14:43:21.000Z,42.05
2023-01-20T14:45:54.288Z,42.60
2023-01-20T14:48:34.659Z,42.99
2023-01-20T14:51:07.132Z,43.19
2023-01-20T14:53:37.802Z,43.77
2023-01-20T14:56:21.337Z,43.91
2023-01-20T14:58:55.626Z,44.37
2023-01-20T15:01:27.202Z,44.37
2023-01-20T15:03:59.516Z,44.88
2023-01-20T15:06:29.020Z,44.73
2023-01-20T15:09:06.546Z,44.97
2023-01-20T15:11:37.272Z,45.47
2023-01-20T15:14:11.371Z,45.76
2023-01-20T15:16:50.471Z,46.32
2023-01-20T15:19:30.731Z,46.68
2023-01-20T15:22:20.045Z,47.37
2023-01-20T15:24:50.544Z,47.68
2023-01-20T15:27:24.670Z,47.89
2023-01-20T15:30:16.629Z,48.43
2023-01-20T15:32:49.388Z,48.46
2023-01-20T15:35:23.393Z,48.82
2023-01-20T15:37:54.686Z,48.96
2023-01-20T15:40:25.610Z,49.29
2023-01-20T15:42:55.459Z,49.11
2023-01-20T15:45:26.325Z,49.53
2023-01-20T15:47:56.782Z,49.35
2023-01-20T15:50:27.512Z,49.80
2023-01-20T15:52:57.489Z,49.79
2023-01-20T15:55:26.782Z,49.93
2023-01-20T15:57:56.194Z,50.16
2023-01-20T16:00:26.181Z,50.09
2023-01-20T16:02:55.633Z,50.66
2023-01-20T16:05:25.585Z,50.57
2023-01-20T16:07:54.656Z,51.12
2023-01-20T16:10:24.341Z,51.45
2023-01-20T16:12:53.822Z,51.69
2023-01-20T16:15:24.656Z,52.19
2023-01-20T16:17:55.267Z,52.21
2023-01-20T16:20:26.201Z,51.95
2023-01-20T16:22:57.313Z,52.39
2023-01-20T16:25:27.077Z,53.39
2023-01-20T16:27:56.444Z,53.28
2023-01-20T16:30:26.411Z,53.41
2023-01-20T16:32:56.813Z,53.75
2023-01-20T16:35:25.884Z,54.37
2023-01-20T16:37:55.561Z,54.11
2023-01-20T16:40:25.309Z,54.30
2023-01-20T16:42:58.085Z,54.62
2023-01-20T16:45:29.544Z,55.10
2023-01-20T16:47:59.232Z,55.17
2023-01-20T16:50:29.033Z,55.35
2023-01-20T16:52:59.309Z,55.64
2023-01-20T16:55:28.748Z,55.77
2023-01-20T16:57:58.229Z,56.05
2023-01-20T17:00:27.882Z,56.01
2023-01-20T17:02:57.722Z,55.71
2023-01-20T17:05:28.969Z,55.95
2023-01-20T17:07:58.858Z,55.51
2023-01-20T17:10:31.450Z,55.49
2023-01-20T17:13:01.805Z,55.75
2023-01-20T17:15:31.996Z,56.01
2023-01-20T17:18:01.608Z,56.08
2023-01-20T17:20:32.696Z,56.35
2023-01-20T17:23:02.318Z,56.50
2023-01-20T17:25:32.473Z,56.81
2023-01-20T17:28:02.102Z,56.77
2023-01-20T17:30:32.173Z,56.78
2023-01-20T17:33:02.820Z,56.78
2023-01-20T17:35:34.197Z,56.95
2023-01-20T17:38:04.362Z,56.94
2023-01-20T17:40:34.745Z,56.88
2023-01-20T17:43:06.205Z,57.30
2023-01-20T17:45:35.931Z,57.62
2023-01-20T17:48:06.098Z,57.40
2023-01-20T17:50:36.362Z,57.29
2023-01-20T17:53:06.792Z,57.59
2023-01-20T17:55:36.335Z,57.83
2023-01-20T17:58:05.466Z,57.83
2023-01-20T18:00:35.782Z,58.16
2023-01-20T18:03:06.327Z,57.97
2023-01-20T18:05:36.522Z,57.62
2023-01-20T18:08:06.350Z,58.43
2023-01-20T18:10:35.659Z,58.29
2023-01-20T18:13:05.872Z,58.51
2023-01-20T18:15:37.287Z,58.39
2023-01-20T18:18:06.863Z,58.49
2023-01-20T18:20:37.550Z,58.64
2023-01-20T18:23:07.580Z,58.70
2023-01-20T18:25:39.369Z,59.11
2023-01-20T18:28:09.363Z,59.43
2023-01-20T18:30:39.713Z,59.84
2023-01-20T18:33:09.239Z,59.83
2023-01-20T18:35:38.860Z,59.68
2023-01-20T18:38:10.243Z,59.82
2023-01-20T18:40:41.513Z,59.85
2023-01-20T18:43:12.546Z,59.99
2023-01-20T18:45:42.609Z,60.47
2023-01-20T18:48:12.857Z,60.36
2023-01-20T18:50:44.023Z,60.30
2023-01-20T18:53:15.724Z,60.36
2023-01-20T18:55:46.141Z,60.28
2023-01-20T18:58:18.681Z,60.47
2023-01-20T19:00:48.418Z,60.30
2023-01-20T19:03:18.538Z,60.39
2023-01-20T19:05:48.830Z,60.12
2023-01-20T19:08:18.393Z,60.09
2023-01-20T19:10:47.337Z,60.52
2023-01-20T19:13:18.307Z,60.44
2023-01-20T19:15:48.376Z,60.71
2023-01-20T19:18:17.747Z,61.05
2023-01-20T19:20:47.970Z,61.20
2023-01-20T19:23:17.940Z,61.76
2023-01-20T19:25:49.575Z,61.79
2023-01-20T19:28:21.293Z,62.74
2023-01-20T19:30:52.720Z,62.54
2023-01-20T19:33:23.898Z,62.38
2023-01-20T19:36:00.057Z,62.68
2023-01-20T19:38:31.155Z,62.84
2023-01-20T19:41:14.087Z,63.12
2023-01-20T19:43:44.554Z,63.42
2023-01-20T19:46:20.066Z,63.39
2023-01-20T19:48:52.145Z,63.43
2023-01-20T19:51:24.724Z,63.85
2023-01-20T19:53:59.132Z,63.76
2023-01-20T19:56:33.666Z,63.55
2023-01-20T19:59:06.611Z,63.84
2023-01-20T20:01:37.717Z,63.85
2023-01-20T20:04:11.143Z,63.81
2023-01-20T20:06:47.802Z,63.65
2023-01-20T20:09:20.852Z,63.49
2023-01-20T20:11:51.231Z,63.68
2023-01-20T20:14:23.634Z,63.43
2023-01-20T20:16:53.148Z,63.43
2023-01-20T20:19:22.408Z,63.22
2023-01-20T20:21:52.707Z,63.06
2023-01-20T20:24:22.825Z,62.84
2023-01-20T20:26:53.139Z,62.97
2023-01-20T20:29:23.863Z,62.65
2023-01-20T20:31:55.438Z,62.38
2023-01-20T20:34:26.499Z,62.12
2023-01-20T20:36:56.546Z,61.97
2023-01-20T20:39:28.083Z,61.83
2023-01-20T20:41:58.473Z,61.86
2023-01-20T20:44:28.856Z,61.71
2023-01-20T20:46:58.731Z,61.19
2023-01-20T20:49:31.859Z,61.53
2023-01-20T20:52:01.699Z,61.11
2023-01-20T20:54:32.734Z,61.20
2023-01-20T20:57:04.358Z,61.01
2023-01-20T20:59:34.488Z,60.86
2023-01-20T21:02:05.237Z,60.57
2023-01-20T21:04:36.216Z,60.53
2023-01-20T21:07:06.756Z,60.43
2023-01-20T21:09:36.395Z,60.24
2023-01-20T21:12:06.156Z,60.28
2023-01-20T21:14:35.531Z,60.17
2023-01-20T21:17:05.527Z,60.09
2023-01-20T21:19:35.205Z,60.02
2023-01-20T21:22:05.049Z,59.92
2023-01-20T21:24:34.639Z,59.93
2023-01-20T21:27:05.395Z,60.05
2023-01-20T21:29:36.747Z,59.81
2023-01-20T21:32:07.071Z,59.55
2023-01-20T21:34:37.973Z,59.46
2023-01-20T21:37:08.982Z,59.28
2023-01-20T21:39:38.376Z,59.37
2023-01-20T21:42:09.390Z,59.33
2023-01-20T21:44:38.539Z,59.26
2023-01-20T21:47:09.149Z,59.09
2023-01-20T21:49:57.405Z,58.84
2023-01-20T21:52:42.390Z,59.00
2023-01-20T21:55:20.108Z,59.13
2023-01-20T21:57:51.549Z,59.06
2023-01-20T22:00:23.572Z,59.06
2023-01-20T22:02:53.867Z,58.86
2023-01-20T22:05:23.688Z,58.79
2023-01-20T22:07:53.502Z,58.40
2023-01-20T22:10:24.755Z,58.16
2023-01-20T22:12:54.373Z,58.28
2023-01-20T22:15:24.571Z,58.26
2023-01-20T22:17:54.283Z,58.18
2023-01-20T22:20:23.968Z,58.21
2023-01-20T22:22:53.053Z,58.29
2023-01-20T22:25:22.523Z,58.65
2023-01-20T22:27:51.900Z,58.50
2023-01-20T22:30:21.694Z,58.27
2023-01-20T22:32:55.459Z,58.34
2023-01-20T22:35:26.082Z,58.33
2023-01-20T22:37:56.047Z,58.56
2023-01-20T22:40:25.207Z,58.54
2023-01-20T22:42:54.305Z,58.23
2023-01-20T22:45:23.605Z,58.34
2023-01-20T22:47:52.747Z,58.25
2023-01-20T22:50:24.046Z,58.18
2023-01-20T22:52:53.677Z,57.90
2023-01-20T23:07:08.915Z,57.57
2023-01-20T23:09:38.098Z,57.79
2023-01-20T23:12:07.251Z,57.55
2023-01-20T23:14:55.217Z,57.19
2023-01-20T23:17:23.830Z,57.51
2023-01-20T23:19:52.497Z,57.45
2023-01-20T23:22:21.418Z,57.26
2023-01-20T23:24:50.411Z,57.27
2023-01-20T23:27:18.918Z,57.69
2023-01-20T23:29:49.401Z,58.14
2023-01-20T23:32:18.151Z,58.25
2023-01-20T23:34:46.762Z,58.53
2023-01-20T23:37:16.764Z,58.58
2023-01-20T23:39:45.567Z,59.41
2023-01-20T23:42:14.262Z,59.69
2023-01-20T23:44:42.897Z,59.64
2023-01-20T23:47:12.174Z,59.86
2023-01-20T23:49:40.834Z,59.36
2023-01-20T23:52:09.846Z,59.60
2023-01-20T23:54:38.342Z,59.51
2023-01-20T23:57:07.869Z,59.24
2023-01-20T23:59:38.181Z,59.27
